sensor_id;sensor_type;location;lat;lon;timestamp;P1;durP1;ratioP1;P2;durP2;ratioP2
11763;SDS011;5939;56.522;14.950;2023-03-04T00:01:41;2.80;;;1.40;;
11763;SDS011;5939;56.522;14.950;2023-03-04T00:04:07;2.07;;;1.40;;
11763;SDS011;5939;56.522;14.950;2023-03-04T00:06:33;2.37;;;1.50;;
11763;SDS011;5939;56.522;14.950;2023-03-04T00:08:59;1.60;;;1.30;;
11763;SDS011;5939;56.522;14.950;2023-03-04T00:11:24;2.30;;;1.30;;
11763;SDS011;5939;56.522;14.950;2023-03-04T00:13:50;2.50;;;1.30;;
11763;SDS011;5939;56.522;14.950;2023-03-04T00:16:16;2.03;;;1.57;;
11763;SDS011;5939;56.522;14.950;2023-03-04T00:18:41;2.00;;;1.40;;
11763;SDS011;5939;56.522;14.950;2023-03-04T00:21:07;1.73;;;1.33;;
11763;SDS011;5939;56.522;14.950;2023-03-04T00:23:33;1.70;;;1.40;;
11763;SDS011;5939;56.522;14.950;2023-03-04T00:25:58;1.40;;;1.30;;
11763;SDS011;5939;56.522;14.950;2023-03-04T00:28:24;1.97;;;1.40;;
11763;SDS011;5939;56.522;14.950;2023-03-04T00:30:49;1.97;;;1.23;;
11763;SDS011;5939;56.522;14.950;2023-03-04T00:33:15;1.70;;;1.60;;
11763;SDS011;5939;56.522;14.950;2023-03-04T00:35:41;2.83;;;1.27;;
11763;SDS011;5939;56.522;14.950;2023-03-04T00:38:06;1.80;;;1.10;;
11763;SDS011;5939;56.522;14.950;2023-03-04T00:40:32;1.53;;;1.40;;
11763;SDS011;5939;56.522;14.950;2023-03-04T00:42:58;2.00;;;1.13;;
11763;SDS011;5939;56.522;14.950;2023-03-04T00:45:24;1.10;;;1.00;;
11763;SDS011;5939;56.522;14.950;2023-03-04T00:47:49;2.30;;;1.20;;
11763;SDS011;5939;56.522;14.950;2023-03-04T00:50:15;1.40;;;1.30;;
11763;SDS011;5939;56.522;14.950;2023-03-04T00:52:41;1.93;;;1.30;;
11763;SDS011;5939;56.522;14.950;2023-03-04T00:55:07;2.50;;;1.10;;
11763;SDS011;5939;56.522;14.950;2023-03-04T00:57:33;1.47;;;1.30;;
11763;SDS011;5939;56.522;14.950;2023-03-04T00:59:59;2.53;;;1.20;;
11763;SDS011;5939;56.522;14.950;2023-03-04T01:02:24;1.77;;;1.10;;
11763;SDS011;5939;56.522;14.950;2023-03-04T01:04:50;2.13;;;1.27;;
11763;SDS011;5939;56.522;14.950;2023-03-04T01:07:16;1.47;;;1.33;;
11763;SDS011;5939;56.522;14.950;2023-03-04T01:09:41;2.00;;;1.00;;
11763;SDS011;5939;56.522;14.950;2023-03-04T01:12:07;2.50;;;1.10;;
11763;SDS011;5939;56.522;14.950;2023-03-04T01:14:33;1.70;;;1.50;;
11763;SDS011;5939;56.522;14.950;2023-03-04T01:16:58;1.40;;;1.10;;
11763;SDS011;5939;56.522;14.950;2023-03-04T01:19:24;4.20;;;1.47;;
11763;SDS011;5939;56.522;14.950;2023-03-04T01:21:50;1.30;;;1.20;;
11763;SDS011;5939;56.522;14.950;2023-03-04T01:24:15;1.23;;;1.13;;
11763;SDS011;5939;56.522;14.950;2023-03-04T01:26:41;1.33;;;1.10;;
11763;SDS011;5939;56.522;14.950;2023-03-04T01:29:06;2.10;;;1.40;;
11763;SDS011;5939;56.522;14.950;2023-03-04T01:31:32;1.03;;;0.93;;
11763;SDS011;5939;56.522;14.950;2023-03-04T01:33:58;1.30;;;1.10;;
11763;SDS011;5939;56.522;14.950;2023-03-04T01:36:23;1.53;;;1.00;;
11763;SDS011;5939;56.522;14.950;2023-03-04T01:38:49;1.67;;;1.00;;
11763;SDS011;5939;56.522;14.950;2023-03-04T01:41:15;1.57;;;1.10;;
11763;SDS011;5939;56.522;14.950;2023-03-04T01:43:43;1.03;;;0.80;;
11763;SDS011;5939;56.522;14.950;2023-03-04T01:46:09;1.73;;;1.30;;
11763;SDS011;5939;56.522;14.950;2023-03-04T01:48:39;1.30;;;1.00;;
11763;SDS011;5939;56.522;14.950;2023-03-04T01:51:08;2.47;;;1.00;;
11763;SDS011;5939;56.522;14.950;2023-03-04T01:53:37;0.83;;;0.83;;
11763;SDS011;5939;56.522;14.950;2023-03-04T01:56:10;1.97;;;1.00;;
11763;SDS011;5939;56.522;14.950;2023-03-04T01:58:36;1.90;;;1.07;;
11763;SDS011;5939;56.522;14.950;2023-03-04T02:01:02;1.00;;;0.90;;
11763;SDS011;5939;56.522;14.950;2023-03-04T02:03:28;1.20;;;1.10;;
11763;SDS011;5939;56.522;14.950;2023-03-04T02:05:54;1.43;;;1.10;;
11763;SDS011;5939;56.522;14.950;2023-03-04T02:08:21;0.80;;;0.80;;
11763;SDS011;5939;56.522;14.950;2023-03-04T02:10:48;1.37;;;1.13;;
11763;SDS011;5939;56.522;14.950;2023-03-04T02:13:15;1.93;;;1.07;;
11763;SDS011;5939;56.522;14.950;2023-03-04T02:15:41;1.20;;;0.87;;
11763;SDS011;5939;56.522;14.950;2023-03-04T02:18:16;1.40;;;1.00;;
11763;SDS011;5939;56.522;14.950;2023-03-04T02:20:55;1.23;;;1.03;;
11763;SDS011;5939;56.522;14.950;2023-03-04T02:23:27;2.00;;;0.93;;
11763;SDS011;5939;56.522;14.950;2023-03-04T02:28:35;3.17;;;0.90;;
11763;SDS011;5939;56.522;14.950;2023-03-04T02:31:01;1.40;;;0.93;;
11763;SDS011;5939;56.522;14.950;2023-03-04T02:33:27;1.00;;;0.90;;
11763;SDS011;5939;56.522;14.950;2023-03-04T02:35:52;1.07;;;0.87;;
11763;SDS011;5939;56.522;14.950;2023-03-04T02:38:18;1.20;;;0.87;;
11763;SDS011;5939;56.522;14.950;2023-03-04T02:40:45;1.33;;;1.17;;
11763;SDS011;5939;56.522;14.950;2023-03-04T02:43:12;1.60;;;1.00;;
11763;SDS011;5939;56.522;14.950;2023-03-04T02:48:09;1.07;;;0.90;;
11763;SDS011;5939;56.522;14.950;2023-03-04T02:50:46;2.90;;;0.80;;
11763;SDS011;5939;56.522;14.950;2023-03-04T02:53:14;0.87;;;0.87;;
11763;SDS011;5939;56.522;14.950;2023-03-04T02:55:40;1.00;;;0.90;;
11763;SDS011;5939;56.522;14.950;2023-03-04T02:58:07;1.10;;;0.77;;
11763;SDS011;5939;56.522;14.950;2023-03-04T03:00:34;2.37;;;0.80;;
11763;SDS011;5939;56.522;14.950;2023-03-04T03:03:00;0.83;;;0.70;;
11763;SDS011;5939;56.522;14.950;2023-03-04T03:05:27;1.10;;;1.00;;
11763;SDS011;5939;56.522;14.950;2023-03-04T03:07:53;2.07;;;0.90;;
11763;SDS011;5939;56.522;14.950;2023-03-04T03:10:19;0.97;;;0.83;;
11763;SDS011;5939;56.522;14.950;2023-03-04T03:12:45;0.70;;;0.70;;
11763;SDS011;5939;56.522;14.950;2023-03-04T03:15:11;1.13;;;0.90;;
11763;SDS011;5939;56.522;14.950;2023-03-04T03:17:37;1.03;;;0.80;;
11763;SDS011;5939;56.522;14.950;2023-03-04T03:20:03;1.40;;;0.80;;
11763;SDS011;5939;56.522;14.950;2023-03-04T03:22:29;0.77;;;0.70;;
11763;SDS011;5939;56.522;14.950;2023-03-04T03:24:55;2.23;;;0.80;;
11763;SDS011;5939;56.522;14.950;2023-03-04T03:27:20;0.60;;;0.60;;
11763;SDS011;5939;56.522;14.950;2023-03-04T03:29:46;1.77;;;0.77;;
11763;SDS011;5939;56.522;14.950;2023-03-04T03:32:12;1.07;;;0.80;;
11763;SDS011;5939;56.522;14.950;2023-03-04T03:34:37;0.73;;;0.70;;
11763;SDS011;5939;56.522;14.950;2023-03-04T03:37:03;1.70;;;0.70;;
11763;SDS011;5939;56.522;14.950;2023-03-04T03:39:29;1.53;;;0.73;;
11763;SDS011;5939;56.522;14.950;2023-03-04T03:41:54;0.60;;;0.60;;
11763;SDS011;5939;56.522;14.950;2023-03-04T03:44:20;0.93;;;0.90;;
11763;SDS011;5939;56.522;14.950;2023-03-04T03:46:45;1.50;;;0.97;;
11763;SDS011;5939;56.522;14.950;2023-03-04T03:49:11;1.60;;;0.70;;
11763;SDS011;5939;56.522;14.950;2023-03-04T03:51:37;1.93;;;0.70;;
11763;SDS011;5939;56.522;14.950;2023-03-04T03:54:03;0.90;;;0.77;;
11763;SDS011;5939;56.522;14.950;2023-03-04T03:56:28;0.70;;;0.70;;
11763;SDS011;5939;56.522;14.950;2023-03-04T03:58:54;0.80;;;0.80;;
11763;SDS011;5939;56.522;14.950;2023-03-04T04:01:20;0.53;;;0.53;;
11763;SDS011;5939;56.522;14.950;2023-03-04T04:03:45;0.70;;;0.70;;
11763;SDS011;5939;56.522;14.950;2023-03-04T04:06:11;1.07;;;0.70;;
11763;SDS011;5939;56.522;14.950;2023-03-04T04:08:37;0.60;;;0.60;;
11763;SDS011;5939;56.522;14.950;2023-03-04T04:11:03;0.60;;;0.60;;
11763;SDS011;5939;56.522;14.950;2023-03-04T04:13:28;0.77;;;0.70;;
11763;SDS011;5939;56.522;14.950;2023-03-04T04:15:54;0.70;;;0.70;;
11763;SDS011;5939;56.522;14.950;2023-03-04T04:18:20;1.47;;;0.70;;
11763;SDS011;5939;56.522;14.950;2023-03-04T04:20:45;1.27;;;0.80;;
11763;SDS011;5939;56.522;14.950;2023-03-04T04:23:11;1.00;;;0.70;;
11763;SDS011;5939;56.522;14.950;2023-03-04T04:25:36;0.60;;;0.60;;
11763;SDS011;5939;56.522;14.950;2023-03-04T04:28:02;0.93;;;0.67;;
11763;SDS011;5939;56.522;14.950;2023-03-04T04:30:28;1.30;;;0.70;;
11763;SDS011;5939;56.522;14.950;2023-03-04T04:32:54;0.70;;;0.70;;
11763;SDS011;5939;56.522;14.950;2023-03-04T04:35:20;1.73;;;0.70;;
11763;SDS011;5939;56.522;14.950;2023-03-04T04:37:45;0.67;;;0.60;;
11763;SDS011;5939;56.522;14.950;2023-03-04T04:40:11;0.63;;;0.60;;
11763;SDS011;5939;56.522;14.950;2023-03-04T04:42:37;0.93;;;0.70;;
11763;SDS011;5939;56.522;14.950;2023-03-04T04:45:03;1.13;;;0.60;;
11763;SDS011;5939;56.522;14.950;2023-03-04T04:47:29;0.50;;;0.50;;
11763;SDS011;5939;56.522;14.950;2023-03-04T04:49:54;0.60;;;0.60;;
11763;SDS011;5939;56.522;14.950;2023-03-04T04:52:20;1.47;;;0.60;;
11763;SDS011;5939;56.522;14.950;2023-03-04T04:54:46;1.60;;;0.67;;
11763;SDS011;5939;56.522;14.950;2023-03-04T04:57:11;0.90;;;0.60;;
11763;SDS011;5939;56.522;14.950;2023-03-04T04:59:37;0.40;;;0.40;;
11763;SDS011;5939;56.522;14.950;2023-03-04T05:02:02;1.03;;;0.50;;
11763;SDS011;5939;56.522;14.950;2023-03-04T05:04:28;0.40;;;0.40;;
11763;SDS011;5939;56.522;14.950;2023-03-04T05:06:54;1.13;;;0.60;;
11763;SDS011;5939;56.522;14.950;2023-03-04T05:09:19;0.87;;;0.60;;
11763;SDS011;5939;56.522;14.950;2023-03-04T05:11:47;0.33;;;0.33;;
11763;SDS011;5939;56.522;14.950;2023-03-04T05:14:12;0.77;;;0.60;;
11763;SDS011;5939;56.522;14.950;2023-03-04T05:16:38;0.50;;;0.50;;
11763;SDS011;5939;56.522;14.950;2023-03-04T05:19:04;0.73;;;0.67;;
11763;SDS011;5939;56.522;14.950;2023-03-04T05:21:29;0.50;;;0.50;;
11763;SDS011;5939;56.522;14.950;2023-03-04T05:23:55;0.83;;;0.60;;
11763;SDS011;5939;56.522;14.950;2023-03-04T05:26:20;0.70;;;0.70;;
11763;SDS011;5939;56.522;14.950;2023-03-04T05:28:46;0.47;;;0.47;;
11763;SDS011;5939;56.522;14.950;2023-03-04T05:31:12;1.73;;;0.50;;
11763;SDS011;5939;56.522;14.950;2023-03-04T05:33:38;0.77;;;0.50;;
11763;SDS011;5939;56.522;14.950;2023-03-04T05:36:04;0.43;;;0.43;;
11763;SDS011;5939;56.522;14.950;2023-03-04T05:38:31;0.67;;;0.50;;
11763;SDS011;5939;56.522;14.950;2023-03-04T05:40:57;0.50;;;0.50;;
11763;SDS011;5939;56.522;14.950;2023-03-04T05:43:25;1.03;;;0.50;;
11763;SDS011;5939;56.522;14.950;2023-03-04T05:45:52;0.73;;;0.73;;
11763;SDS011;5939;56.522;14.950;2023-03-04T05:48:18;0.73;;;0.40;;
11763;SDS011;5939;56.522;14.950;2023-03-04T05:50:44;0.77;;;0.50;;
11763;SDS011;5939;56.522;14.950;2023-03-04T05:53:10;0.40;;;0.40;;
11763;SDS011;5939;56.522;14.950;2023-03-04T05:55:36;0.67;;;0.60;;
11763;SDS011;5939;56.522;14.950;2023-03-04T05:58:01;0.50;;;0.50;;
11763;SDS011;5939;56.522;14.950;2023-03-04T06:00:27;0.73;;;0.60;;
11763;SDS011;5939;56.522;14.950;2023-03-04T06:02:53;0.50;;;0.50;;
11763;SDS011;5939;56.522;14.950;2023-03-04T06:05:18;0.70;;;0.60;;
11763;SDS011;5939;56.522;14.950;2023-03-04T06:07:45;0.57;;;0.57;;
11763;SDS011;5939;56.522;14.950;2023-03-04T06:10:12;1.03;;;0.40;;
11763;SDS011;5939;56.522;14.950;2023-03-04T06:12:41;0.50;;;0.50;;
11763;SDS011;5939;56.522;14.950;2023-03-04T06:15:07;0.60;;;0.60;;
11763;SDS011;5939;56.522;14.950;2023-03-04T06:17:34;1.37;;;0.57;;
11763;SDS011;5939;56.522;14.950;2023-03-04T06:20:00;0.70;;;0.60;;
11763;SDS011;5939;56.522;14.950;2023-03-04T06:22:26;0.50;;;0.50;;
11763;SDS011;5939;56.522;14.950;2023-03-04T06:24:52;1.27;;;0.70;;
11763;SDS011;5939;56.522;14.950;2023-03-04T06:27:17;0.40;;;0.40;;
11763;SDS011;5939;56.522;14.950;2023-03-04T06:29:43;0.70;;;0.50;;
11763;SDS011;5939;56.522;14.950;2023-03-04T06:32:08;0.60;;;0.60;;
11763;SDS011;5939;56.522;14.950;2023-03-04T06:34:34;0.50;;;0.50;;
11763;SDS011;5939;56.522;14.950;2023-03-04T06:37:00;0.87;;;0.60;;
11763;SDS011;5939;56.522;14.950;2023-03-04T06:39:26;1.27;;;0.60;;
11763;SDS011;5939;56.522;14.950;2023-03-04T06:41:51;0.40;;;0.40;;
11763;SDS011;5939;56.522;14.950;2023-03-04T06:44:17;0.63;;;0.60;;
11763;SDS011;5939;56.522;14.950;2023-03-04T06:46:43;0.40;;;0.40;;
11763;SDS011;5939;56.522;14.950;2023-03-04T06:49:08;0.97;;;0.40;;
11763;SDS011;5939;56.522;14.950;2023-03-04T06:51:34;2.17;;;0.83;;
11763;SDS011;5939;56.522;14.950;2023-03-04T06:54:00;0.50;;;0.50;;
11763;SDS011;5939;56.522;14.950;2023-03-04T06:56:26;0.50;;;0.50;;
11763;SDS011;5939;56.522;14.950;2023-03-04T06:58:52;1.20;;;0.43;;
11763;SDS011;5939;56.522;14.950;2023-03-04T07:01:19;0.50;;;0.50;;
11763;SDS011;5939;56.522;14.950;2023-03-04T07:03:49;0.77;;;0.50;;
11763;SDS011;5939;56.522;14.950;2023-03-04T07:06:17;0.80;;;0.60;;
11763;SDS011;5939;56.522;14.950;2023-03-04T07:08:44;0.70;;;0.50;;
11763;SDS011;5939;56.522;14.950;2023-03-04T07:11:11;0.40;;;0.40;;
11763;SDS011;5939;56.522;14.950;2023-03-04T07:13:37;0.60;;;0.60;;
11763;SDS011;5939;56.522;14.950;2023-03-04T07:16:06;0.50;;;0.50;;
11763;SDS011;5939;56.522;14.950;2023-03-04T07:18:33;1.07;;;0.60;;
11763;SDS011;5939;56.522;14.950;2023-03-04T07:20:59;0.53;;;0.53;;
11763;SDS011;5939;56.522;14.950;2023-03-04T07:23:24;0.50;;;0.50;;
11763;SDS011;5939;56.522;14.950;2023-03-04T07:25:50;1.00;;;0.90;;
11763;SDS011;5939;56.522;14.950;2023-03-04T07:28:16;1.13;;;0.60;;
11763;SDS011;5939;56.522;14.950;2023-03-04T07:30:42;0.57;;;0.50;;
11763;SDS011;5939;56.522;14.950;2023-03-04T07:33:08;0.60;;;0.60;;
11763;SDS011;5939;56.522;14.950;2023-03-04T07:35:34;0.93;;;0.60;;
11763;SDS011;5939;56.522;14.950;2023-03-04T07:37:59;1.33;;;0.60;;
11763;SDS011;5939;56.522;14.950;2023-03-04T07:40:25;4.20;;;0.80;;
11763;SDS011;5939;56.522;14.950;2023-03-04T07:42:51;1.33;;;0.70;;
11763;SDS011;5939;56.522;14.950;2023-03-04T07:45:18;0.60;;;0.60;;
11763;SDS011;5939;56.522;14.950;2023-03-04T07:47:44;0.60;;;0.60;;
11763;SDS011;5939;56.522;14.950;2023-03-04T07:50:11;0.40;;;0.40;;
11763;SDS011;5939;56.522;14.950;2023-03-04T07:52:37;0.60;;;0.53;;
11763;SDS011;5939;56.522;14.950;2023-03-04T07:55:08;0.67;;;0.47;;
11763;SDS011;5939;56.522;14.950;2023-03-04T07:57:37;2.17;;;0.70;;
11763;SDS011;5939;56.522;14.950;2023-03-04T08:00:04;2.47;;;0.53;;
11763;SDS011;5939;56.522;14.950;2023-03-04T08:02:30;2.97;;;0.60;;
11763;SDS011;5939;56.522;14.950;2023-03-04T08:04:56;0.50;;;0.50;;
11763;SDS011;5939;56.522;14.950;2023-03-04T08:07:21;0.70;;;0.60;;
11763;SDS011;5939;56.522;14.950;2023-03-04T08:09:47;1.73;;;0.87;;
11763;SDS011;5939;56.522;14.950;2023-03-04T08:12:13;1.23;;;0.70;;
11763;SDS011;5939;56.522;14.950;2023-03-04T08:14:39;0.70;;;0.57;;
11763;SDS011;5939;56.522;14.950;2023-03-04T08:17:05;0.63;;;0.57;;
11763;SDS011;5939;56.522;14.950;2023-03-04T08:19:30;2.57;;;0.67;;
11763;SDS011;5939;56.522;14.950;2023-03-04T08:21:56;3.23;;;0.80;;
11763;SDS011;5939;56.522;14.950;2023-03-04T08:24:22;0.80;;;0.73;;
11763;SDS011;5939;56.522;14.950;2023-03-04T08:26:48;1.67;;;0.60;;
11763;SDS011;5939;56.522;14.950;2023-03-04T08:29:18;2.43;;;1.00;;
11763;SDS011;5939;56.522;14.950;2023-03-04T08:31:46;1.60;;;0.70;;
11763;SDS011;5939;56.522;14.950;2023-03-04T08:34:15;0.93;;;0.70;;
11763;SDS011;5939;56.522;14.950;2023-03-04T08:36:41;1.00;;;0.70;;
11763;SDS011;5939;56.522;14.950;2023-03-04T08:39:07;0.80;;;0.57;;
11763;SDS011;5939;56.522;14.950;2023-03-04T08:41:35;0.77;;;0.67;;
11763;SDS011;5939;56.522;14.950;2023-03-04T08:44:01;1.67;;;0.80;;
11763;SDS011;5939;56.522;14.950;2023-03-04T08:46:27;0.73;;;0.60;;
11763;SDS011;5939;56.522;14.950;2023-03-04T08:48:53;0.70;;;0.60;;
11763;SDS011;5939;56.522;14.950;2023-03-04T08:51:19;1.23;;;0.60;;
11763;SDS011;5939;56.522;14.950;2023-03-04T08:53:45;2.20;;;0.63;;
11763;SDS011;5939;56.522;14.950;2023-03-04T08:56:11;3.97;;;0.90;;
11763;SDS011;5939;56.522;14.950;2023-03-04T08:58:37;0.77;;;0.63;;
11763;SDS011;5939;56.522;14.950;2023-03-04T09:01:03;2.97;;;0.80;;
11763;SDS011;5939;56.522;14.950;2023-03-04T09:03:32;0.77;;;0.77;;
11763;SDS011;5939;56.522;14.950;2023-03-04T09:05:57;0.90;;;0.63;;
11763;SDS011;5939;56.522;14.950;2023-03-04T09:08:26;1.63;;;0.90;;
11763;SDS011;5939;56.522;14.950;2023-03-04T09:10:52;2.00;;;0.83;;
11763;SDS011;5939;56.522;14.950;2023-03-04T09:13:18;1.27;;;0.77;;
11763;SDS011;5939;56.522;14.950;2023-03-04T09:15:45;2.13;;;0.90;;
11763;SDS011;5939;56.522;14.950;2023-03-04T09:18:12;1.53;;;0.80;;
11763;SDS011;5939;56.522;14.950;2023-03-04T09:20:38;1.43;;;0.83;;
11763;SDS011;5939;56.522;14.950;2023-03-04T09:23:04;1.40;;;1.00;;
11763;SDS011;5939;56.522;14.950;2023-03-04T09:25:30;1.57;;;0.93;;
11763;SDS011;5939;56.522;14.950;2023-03-04T09:27:56;1.43;;;0.80;;
11763;SDS011;5939;56.522;14.950;2023-03-04T09:30:21;2.73;;;1.20;;
11763;SDS011;5939;56.522;14.950;2023-03-04T09:32:47;1.63;;;0.80;;
11763;SDS011;5939;56.522;14.950;2023-03-04T09:35:12;1.63;;;0.90;;
11763;SDS011;5939;56.522;14.950;2023-03-04T09:37:38;1.90;;;0.90;;
11763;SDS011;5939;56.522;14.950;2023-03-04T09:40:04;1.03;;;0.83;;
11763;SDS011;5939;56.522;14.950;2023-03-04T09:42:33;1.63;;;0.80;;
11763;SDS011;5939;56.522;14.950;2023-03-04T09:45:10;1.67;;;0.90;;
11763;SDS011;5939;56.522;14.950;2023-03-04T09:47:49;1.63;;;0.97;;
11763;SDS011;5939;56.522;14.950;2023-03-04T09:50:18;0.90;;;0.70;;
11763;SDS011;5939;56.522;14.950;2023-03-04T09:52:58;0.80;;;0.80;;
11763;SDS011;5939;56.522;14.950;2023-03-04T09:55:55;2.70;;;0.87;;
11763;SDS011;5939;56.522;14.950;2023-03-04T09:58:41;1.57;;;0.70;;
11763;SDS011;5939;56.522;14.950;2023-03-04T10:06:41;0.60;;;0.50;;
11763;SDS011;5939;56.522;14.950;2023-03-04T10:09:12;0.97;;;0.70;;
11763;SDS011;5939;56.522;14.950;2023-03-04T10:11:45;2.30;;;0.70;;
11763;SDS011;5939;56.522;14.950;2023-03-04T10:19:38;1.33;;;0.80;;
11763;SDS011;5939;56.522;14.950;2023-03-04T10:22:50;2.33;;;0.70;;
11763;SDS011;5939;56.522;14.950;2023-03-04T10:25:19;1.93;;;0.80;;
11763;SDS011;5939;56.522;14.950;2023-03-04T10:27:49;1.37;;;0.73;;
11763;SDS011;5939;56.522;14.950;2023-03-04T10:30:21;1.57;;;0.70;;
11763;SDS011;5939;56.522;14.950;2023-03-04T10:33:15;0.83;;;0.70;;
11763;SDS011;5939;56.522;14.950;2023-03-04T10:35:44;0.70;;;0.70;;
11763;SDS011;5939;56.522;14.950;2023-03-04T10:38:35;0.70;;;0.70;;
11763;SDS011;5939;56.522;14.950;2023-03-04T10:41:22;1.10;;;0.77;;
11763;SDS011;5939;56.522;14.950;2023-03-04T10:46:32;0.67;;;0.60;;
11763;SDS011;5939;56.522;14.950;2023-03-04T10:49:05;1.10;;;0.80;;
11763;SDS011;5939;56.522;14.950;2023-03-04T10:51:30;0.87;;;0.83;;
11763;SDS011;5939;56.522;14.950;2023-03-04T10:54:09;0.73;;;0.70;;
11763;SDS011;5939;56.522;14.950;2023-03-04T10:56:54;1.20;;;0.70;;
11763;SDS011;5939;56.522;14.950;2023-03-04T11:02:16;0.80;;;0.70;;
11763;SDS011;5939;56.522;14.950;2023-03-04T11:04:42;2.10;;;1.10;;
11763;SDS011;5939;56.522;14.950;2023-03-04T11:07:30;1.20;;;0.80;;
11763;SDS011;5939;56.522;14.950;2023-03-04T11:10:03;2.03;;;0.93;;
11763;SDS011;5939;56.522;14.950;2023-03-04T11:12:33;1.97;;;0.90;;
11763;SDS011;5939;56.522;14.950;2023-03-04T11:14:59;1.50;;;1.00;;
11763;SDS011;5939;56.522;14.950;2023-03-04T11:17:27;2.43;;;1.00;;
11763;SDS011;5939;56.522;14.950;2023-03-04T11:20:08;2.20;;;0.90;;
11763;SDS011;5939;56.522;14.950;2023-03-04T11:22:44;2.03;;;1.03;;
11763;SDS011;5939;56.522;14.950;2023-03-04T11:25:33;1.00;;;0.80;;
11763;SDS011;5939;56.522;14.950;2023-03-04T11:28:13;0.80;;;0.80;;
11763;SDS011;5939;56.522;14.950;2023-03-04T11:30:54;2.60;;;0.70;;
11763;SDS011;5939;56.522;14.950;2023-03-04T11:33:27;0.73;;;0.73;;
11763;SDS011;5939;56.522;14.950;2023-03-04T11:38:57;1.37;;;0.90;;
11763;SDS011;5939;56.522;14.950;2023-03-04T11:41:33;2.40;;;0.77;;
11763;SDS011;5939;56.522;14.950;2023-03-04T11:44:04;1.47;;;0.80;;
11763;SDS011;5939;56.522;14.950;2023-03-04T11:49:37;0.70;;;0.70;;
11763;SDS011;5939;56.522;14.950;2023-03-04T11:55:14;1.20;;;0.80;;
11763;SDS011;5939;56.522;14.950;2023-03-04T12:05:59;0.73;;;0.60;;
11763;SDS011;5939;56.522;14.950;2023-03-04T12:11:40;1.07;;;0.50;;
11763;SDS011;5939;56.522;14.950;2023-03-04T12:22:44;0.60;;;0.60;;
11763;SDS011;5939;56.522;14.950;2023-03-04T12:28:16;1.67;;;0.60;;
11763;SDS011;5939;56.522;14.950;2023-03-04T12:39:33;2.20;;;0.77;;
11763;SDS011;5939;56.522;14.950;2023-03-04T12:45:26;1.37;;;0.60;;
11763;SDS011;5939;56.522;14.950;2023-03-04T12:53:50;1.20;;;0.87;;
11763;SDS011;5939;56.522;14.950;2023-03-04T12:57:11;1.90;;;0.57;;
11763;SDS011;5939;56.522;14.950;2023-03-04T13:05:31;1.70;;;1.00;;
11763;SDS011;5939;56.522;14.950;2023-03-04T13:10:49;0.67;;;0.57;;
11763;SDS011;5939;56.522;14.950;2023-03-04T13:18:36;0.77;;;0.60;;
11763;SDS011;5939;56.522;14.950;2023-03-04T13:21:05;1.37;;;0.67;;
11763;SDS011;5939;56.522;14.950;2023-03-04T13:23:38;1.57;;;0.77;;
11763;SDS011;5939;56.522;14.950;2023-03-04T13:26:14;0.93;;;0.70;;
11763;SDS011;5939;56.522;14.950;2023-03-04T13:28:43;1.43;;;0.70;;
11763;SDS011;5939;56.522;14.950;2023-03-04T13:36:01;0.70;;;0.70;;
11763;SDS011;5939;56.522;14.950;2023-03-04T13:43:57;0.77;;;0.50;;
11763;SDS011;5939;56.522;14.950;2023-03-04T13:49:03;0.57;;;0.50;;
11763;SDS011;5939;56.522;14.950;2023-03-04T13:51:39;2.30;;;0.60;;
11763;SDS011;5939;56.522;14.950;2023-03-04T13:54:15;1.60;;;0.70;;
11763;SDS011;5939;56.522;14.950;2023-03-04T13:56:47;1.13;;;0.63;;
11763;SDS011;5939;56.522;14.950;2023-03-04T13:59:46;0.80;;;0.60;;
11763;SDS011;5939;56.522;14.950;2023-03-04T14:02:18;1.37;;;0.60;;
11763;SDS011;5939;56.522;14.950;2023-03-04T14:04:56;0.43;;;0.40;;
11763;SDS011;5939;56.522;14.950;2023-03-04T14:07:27;0.77;;;0.60;;
11763;SDS011;5939;56.522;14.950;2023-03-04T14:10:18;0.50;;;0.50;;
11763;SDS011;5939;56.522;14.950;2023-03-04T14:12:53;1.27;;;0.60;;
11763;SDS011;5939;56.522;14.950;2023-03-04T14:15:22;0.60;;;0.60;;
11763;SDS011;5939;56.522;14.950;2023-03-04T14:17:53;1.13;;;0.60;;
11763;SDS011;5939;56.522;14.950;2023-03-04T14:22:57;0.87;;;0.67;;
11763;SDS011;5939;56.522;14.950;2023-03-04T14:25:25;1.67;;;0.70;;
11763;SDS011;5939;56.522;14.950;2023-03-04T14:30:27;1.17;;;0.60;;
11763;SDS011;5939;56.522;14.950;2023-03-04T14:32:55;0.93;;;0.60;;
11763;SDS011;5939;56.522;14.950;2023-03-04T14:35:23;0.67;;;0.50;;
11763;SDS011;5939;56.522;14.950;2023-03-04T14:37:56;1.70;;;0.73;;
11763;SDS011;5939;56.522;14.950;2023-03-04T14:40:34;0.77;;;0.50;;
11763;SDS011;5939;56.522;14.950;2023-03-04T14:43:07;0.40;;;0.40;;
11763;SDS011;5939;56.522;14.950;2023-03-04T14:45:47;0.67;;;0.50;;
11763;SDS011;5939;56.522;14.950;2023-03-04T14:48:17;0.57;;;0.57;;
11763;SDS011;5939;56.522;14.950;2023-03-04T14:50:56;0.40;;;0.40;;
11763;SDS011;5939;56.522;14.950;2023-03-04T14:53:27;0.87;;;0.57;;
11763;SDS011;5939;56.522;14.950;2023-03-04T14:58:23;0.70;;;0.50;;
11763;SDS011;5939;56.522;14.950;2023-03-04T15:01:03;0.83;;;0.67;;
11763;SDS011;5939;56.522;14.950;2023-03-04T15:03:45;0.50;;;0.50;;
11763;SDS011;5939;56.522;14.950;2023-03-04T15:06:22;0.50;;;0.50;;
11763;SDS011;5939;56.522;14.950;2023-03-04T15:08:56;0.73;;;0.63;;
11763;SDS011;5939;56.522;14.950;2023-03-04T15:11:47;0.50;;;0.50;;
11763;SDS011;5939;56.522;14.950;2023-03-04T15:17:04;1.27;;;0.50;;
11763;SDS011;5939;56.522;14.950;2023-03-04T15:19:29;0.37;;;0.33;;
11763;SDS011;5939;56.522;14.950;2023-03-04T15:22:02;0.57;;;0.40;;
11763;SDS011;5939;56.522;14.950;2023-03-04T15:24:31;0.40;;;0.40;;
11763;SDS011;5939;56.522;14.950;2023-03-04T15:26:57;0.40;;;0.40;;
11763;SDS011;5939;56.522;14.950;2023-03-04T15:29:22;0.40;;;0.40;;
11763;SDS011;5939;56.522;14.950;2023-03-04T15:31:48;0.37;;;0.37;;
11763;SDS011;5939;56.522;14.950;2023-03-04T15:34:14;1.00;;;0.40;;
11763;SDS011;5939;56.522;14.950;2023-03-04T15:36:46;0.40;;;0.40;;
11763;SDS011;5939;56.522;14.950;2023-03-04T15:39:14;0.50;;;0.50;;
11763;SDS011;5939;56.522;14.950;2023-03-04T15:41:42;0.57;;;0.40;;
11763;SDS011;5939;56.522;14.950;2023-03-04T15:44:10;0.60;;;0.60;;
11763;SDS011;5939;56.522;14.950;2023-03-04T15:46:36;0.90;;;0.50;;
11763;SDS011;5939;56.522;14.950;2023-03-04T15:49:02;0.53;;;0.53;;
11763;SDS011;5939;56.522;14.950;2023-03-04T15:51:27;0.87;;;0.50;;
11763;SDS011;5939;56.522;14.950;2023-03-04T15:53:57;0.40;;;0.40;;
11763;SDS011;5939;56.522;14.950;2023-03-04T15:56:24;0.30;;;0.30;;
11763;SDS011;5939;56.522;14.950;2023-03-04T15:58:55;0.40;;;0.40;;
11763;SDS011;5939;56.522;14.950;2023-03-04T16:01:25;1.07;;;0.40;;
11763;SDS011;5939;56.522;14.950;2023-03-04T16:03:51;0.77;;;0.67;;
11763;SDS011;5939;56.522;14.950;2023-03-04T16:06:17;1.23;;;0.70;;
11763;SDS011;5939;56.522;14.950;2023-03-04T16:08:45;0.50;;;0.50;;
11763;SDS011;5939;56.522;14.950;2023-03-04T16:11:13;0.83;;;0.50;;
11763;SDS011;5939;56.522;14.950;2023-03-04T16:13:44;1.30;;;0.53;;
11763;SDS011;5939;56.522;14.950;2023-03-04T16:16:10;0.93;;;0.40;;
11763;SDS011;5939;56.522;14.950;2023-03-04T16:18:36;1.70;;;0.60;;
11763;SDS011;5939;56.522;14.950;2023-03-04T16:21:02;0.40;;;0.40;;
11763;SDS011;5939;56.522;14.950;2023-03-04T16:23:28;0.30;;;0.30;;
11763;SDS011;5939;56.522;14.950;2023-03-04T16:25:59;0.70;;;0.50;;
11763;SDS011;5939;56.522;14.950;2023-03-04T16:28:24;1.03;;;0.30;;
11763;SDS011;5939;56.522;14.950;2023-03-04T16:30:50;0.40;;;0.40;;
11763;SDS011;5939;56.522;14.950;2023-03-04T16:33:15;0.83;;;0.50;;
11763;SDS011;5939;56.522;14.950;2023-03-04T16:35:41;0.30;;;0.30;;
11763;SDS011;5939;56.522;14.950;2023-03-04T16:38:11;0.67;;;0.40;;
11763;SDS011;5939;56.522;14.950;2023-03-04T16:40:45;0.50;;;0.50;;
11763;SDS011;5939;56.522;14.950;2023-03-04T16:43:11;1.07;;;0.57;;
11763;SDS011;5939;56.522;14.950;2023-03-04T16:45:37;0.40;;;0.40;;